sensor_id;sensor_type;location;lat;lon;timestamp;P1;durP1;ratioP1;P2;durP2;ratioP2
18200;SDS011;9226;47.858;9.594;2023-05-07T00:01:53;9.37;;;6.03;;
18200;SDS011;9226;47.858;9.594;2023-05-07T00:04:18;10.87;;;5.63;;
18200;SDS011;9226;47.858;9.594;2023-05-07T00:06:44;10.80;;;6.33;;
18200;SDS011;9226;47.858;9.594;2023-05-07T00:09:09;9.03;;;5.77;;
18200;SDS011;9226;47.858;9.594;2023-05-07T00:11:35;8.43;;;5.70;;
18200;SDS011;9226;47.858;9.594;2023-05-07T00:14:01;11.23;;;5.67;;
18200;SDS011;9226;47.858;9.594;2023-05-07T00:16:26;8.80;;;5.53;;
18200;SDS011;9226;47.858;9.594;2023-05-07T00:18:52;8.20;;;5.90;;
18200;SDS011;9226;47.858;9.594;2023-05-07T00:21:17;10.07;;;5.97;;
18200;SDS011;9226;47.858;9.594;2023-05-07T00:23:43;10.27;;;6.30;;
18200;SDS011;9226;47.858;9.594;2023-05-07T00:26:08;12.70;;;6.30;;
18200;SDS011;9226;47.858;9.594;2023-05-07T00:28:33;8.10;;;5.50;;
18200;SDS011;9226;47.858;9.594;2023-05-07T00:30:59;11.20;;;5.90;;
18200;SDS011;9226;47.858;9.594;2023-05-07T00:33:24;11.87;;;6.27;;
18200;SDS011;9226;47.858;9.594;2023-05-07T00:35:51;9.20;;;5.77;;
18200;SDS011;9226;47.858;9.594;2023-05-07T00:38:17;11.00;;;6.07;;
18200;SDS011;9226;47.858;9.594;2023-05-07T00:40:42;8.23;;;5.80;;
18200;SDS011;9226;47.858;9.594;2023-05-07T00:43:07;9.53;;;6.10;;
18200;SDS011;9226;47.858;9.594;2023-05-07T00:45:33;11.17;;;6.20;;
18200;SDS011;9226;47.858;9.594;2023-05-07T00:47:59;9.13;;;6.03;;
18200;SDS011;9226;47.858;9.594;2023-05-07T00:50:26;10.03;;;6.30;;
18200;SDS011;9226;47.858;9.594;2023-05-07T00:52:53;12.60;;;6.30;;
18200;SDS011;9226;47.858;9.594;2023-05-07T00:55:19;9.77;;;6.33;;
18200;SDS011;9226;47.858;9.594;2023-05-07T00:57:45;11.97;;;6.53;;
18200;SDS011;9226;47.858;9.594;2023-05-07T01:00:10;9.90;;;6.00;;
18200;SDS011;9226;47.858;9.594;2023-05-07T01:02:40;9.73;;;6.40;;
18200;SDS011;9226;47.858;9.594;2023-05-07T01:05:07;9.13;;;6.03;;
18200;SDS011;9226;47.858;9.594;2023-05-07T01:07:34;8.67;;;6.30;;
18200;SDS011;9226;47.858;9.594;2023-05-07T01:10:02;9.73;;;6.50;;
18200;SDS011;9226;47.858;9.594;2023-05-07T01:12:28;10.07;;;6.07;;
18200;SDS011;9226;47.858;9.594;2023-05-07T01:14:55;10.20;;;6.10;;
18200;SDS011;9226;47.858;9.594;2023-05-07T01:17:20;9.67;;;6.47;;
18200;SDS011;9226;47.858;9.594;2023-05-07T01:19:46;11.97;;;6.37;;
18200;SDS011;9226;47.858;9.594;2023-05-07T01:22:12;11.57;;;6.60;;
18200;SDS011;9226;47.858;9.594;2023-05-07T01:24:41;10.43;;;6.67;;
18200;SDS011;9226;47.858;9.594;2023-05-07T01:27:07;9.57;;;6.73;;
18200;SDS011;9226;47.858;9.594;2023-05-07T01:29:32;9.07;;;6.47;;
18200;SDS011;9226;47.858;9.594;2023-05-07T01:31:58;9.97;;;5.97;;
18200;SDS011;9226;47.858;9.594;2023-05-07T01:34:25;11.13;;;6.40;;
18200;SDS011;9226;47.858;9.594;2023-05-07T01:36:54;12.43;;;7.03;;
18200;SDS011;9226;47.858;9.594;2023-05-07T01:39:22;9.87;;;6.20;;
18200;SDS011;9226;47.858;9.594;2023-05-07T01:41:49;10.63;;;6.30;;
18200;SDS011;9226;47.858;9.594;2023-05-07T01:44:15;9.13;;;6.20;;
18200;SDS011;9226;47.858;9.594;2023-05-07T01:46:43;11.17;;;6.77;;
18200;SDS011;9226;47.858;9.594;2023-05-07T01:49:08;9.63;;;6.23;;
18200;SDS011;9226;47.858;9.594;2023-05-07T01:51:34;9.57;;;6.33;;
18200;SDS011;9226;47.858;9.594;2023-05-07T01:54:00;12.03;;;6.10;;
18200;SDS011;9226;47.858;9.594;2023-05-07T01:56:26;9.77;;;6.70;;
18200;SDS011;9226;47.858;9.594;2023-05-07T01:58:51;11.10;;;6.83;;
18200;SDS011;9226;47.858;9.594;2023-05-07T02:01:17;14.97;;;6.17;;
18200;SDS011;9226;47.858;9.594;2023-05-07T02:03:43;10.67;;;6.50;;
18200;SDS011;9226;47.858;9.594;2023-05-07T02:06:09;10.77;;;6.77;;
18200;SDS011;9226;47.858;9.594;2023-05-07T02:08:34;13.30;;;6.80;;
18200;SDS011;9226;47.858;9.594;2023-05-07T02:10:59;8.77;;;6.30;;
18200;SDS011;9226;47.858;9.594;2023-05-07T02:13:26;14.90;;;6.97;;
18200;SDS011;9226;47.858;9.594;2023-05-07T02:15:54;8.83;;;6.00;;
18200;SDS011;9226;47.858;9.594;2023-05-07T02:18:19;10.70;;;6.27;;
18200;SDS011;9226;47.858;9.594;2023-05-07T02:20:45;11.73;;;6.33;;
18200;SDS011;9226;47.858;9.594;2023-05-07T02:23:10;8.93;;;6.30;;
18200;SDS011;9226;47.858;9.594;2023-05-07T02:25:35;9.63;;;6.07;;
18200;SDS011;9226;47.858;9.594;2023-05-07T02:28:01;12.47;;;5.93;;
18200;SDS011;9226;47.858;9.594;2023-05-07T02:30:26;9.67;;;6.60;;
18200;SDS011;9226;47.858;9.594;2023-05-07T02:32:52;11.73;;;6.63;;
18200;SDS011;9226;47.858;9.594;2023-05-07T02:35:17;12.23;;;6.80;;
18200;SDS011;9226;47.858;9.594;2023-05-07T02:37:42;9.13;;;6.40;;
18200;SDS011;9226;47.858;9.594;2023-05-07T02:40:08;12.10;;;7.10;;
18200;SDS011;9226;47.858;9.594;2023-05-07T02:42:34;10.80;;;6.87;;
18200;SDS011;9226;47.858;9.594;2023-05-07T02:45:00;11.57;;;7.17;;
18200;SDS011;9226;47.858;9.594;2023-05-07T02:47:25;10.30;;;6.40;;
18200;SDS011;9226;47.858;9.594;2023-05-07T02:49:53;10.77;;;6.60;;
18200;SDS011;9226;47.858;9.594;2023-05-07T02:52:19;11.10;;;6.70;;
18200;SDS011;9226;47.858;9.594;2023-05-07T02:54:44;14.03;;;6.73;;
18200;SDS011;9226;47.858;9.594;2023-05-07T02:57:09;9.80;;;6.80;;
18200;SDS011;9226;47.858;9.594;2023-05-07T02:59:35;12.93;;;7.43;;
18200;SDS011;9226;47.858;9.594;2023-05-07T03:02:00;13.30;;;7.07;;
18200;SDS011;9226;47.858;9.594;2023-05-07T03:04:26;12.73;;;7.63;;
18200;SDS011;9226;47.858;9.594;2023-05-07T03:06:51;12.73;;;7.30;;
18200;SDS011;9226;47.858;9.594;2023-05-07T03:09:16;12.53;;;7.30;;
18200;SDS011;9226;47.858;9.594;2023-05-07T03:11:42;14.27;;;8.00;;
18200;SDS011;9226;47.858;9.594;2023-05-07T03:14:07;14.17;;;8.00;;
18200;SDS011;9226;47.858;9.594;2023-05-07T03:16:33;11.60;;;7.77;;
18200;SDS011;9226;47.858;9.594;2023-05-07T03:18:58;13.87;;;7.53;;
18200;SDS011;9226;47.858;9.594;2023-05-07T03:21:23;9.87;;;6.80;;
18200;SDS011;9226;47.858;9.594;2023-05-07T03:23:49;14.53;;;7.60;;
18200;SDS011;9226;47.858;9.594;2023-05-07T03:26:14;12.17;;;6.63;;
18200;SDS011;9226;47.858;9.594;2023-05-07T03:28:40;13.77;;;7.30;;
18200;SDS011;9226;47.858;9.594;2023-05-07T03:31:05;9.43;;;6.73;;
18200;SDS011;9226;47.858;9.594;2023-05-07T03:33:33;10.20;;;6.50;;
18200;SDS011;9226;47.858;9.594;2023-05-07T03:35:59;10.57;;;7.10;;
18200;SDS011;9226;47.858;9.594;2023-05-07T03:38:25;9.87;;;6.30;;
18200;SDS011;9226;47.858;9.594;2023-05-07T03:40:51;11.77;;;6.93;;
18200;SDS011;9226;47.858;9.594;2023-05-07T03:43:16;11.03;;;6.87;;
18200;SDS011;9226;47.858;9.594;2023-05-07T03:45:41;11.23;;;7.37;;
18200;SDS011;9226;47.858;9.594;2023-05-07T03:48:07;11.40;;;6.57;;
18200;SDS011;9226;47.858;9.594;2023-05-07T03:50:32;11.93;;;7.57;;
18200;SDS011;9226;47.858;9.594;2023-05-07T03:52:58;16.10;;;7.60;;
18200;SDS011;9226;47.858;9.594;2023-05-07T03:55:23;15.27;;;7.33;;
18200;SDS011;9226;47.858;9.594;2023-05-07T03:57:49;12.70;;;7.03;;
18200;SDS011;9226;47.858;9.594;2023-05-07T04:00:14;10.40;;;6.73;;
18200;SDS011;9226;47.858;9.594;2023-05-07T04:02:40;11.80;;;7.07;;
18200;SDS011;9226;47.858;9.594;2023-05-07T04:05:05;13.77;;;6.60;;
18200;SDS011;9226;47.858;9.594;2023-05-07T04:07:31;13.43;;;7.83;;
18200;SDS011;9226;47.858;9.594;2023-05-07T04:09:56;11.30;;;6.77;;
18200;SDS011;9226;47.858;9.594;2023-05-07T04:12:22;11.00;;;6.93;;
18200;SDS011;9226;47.858;9.594;2023-05-07T04:14:47;9.83;;;6.30;;
18200;SDS011;9226;47.858;9.594;2023-05-07T04:17:12;13.37;;;6.77;;
18200;SDS011;9226;47.858;9.594;2023-05-07T04:19:38;10.90;;;7.00;;
18200;SDS011;9226;47.858;9.594;2023-05-07T04:22:03;12.57;;;7.03;;
18200;SDS011;9226;47.858;9.594;2023-05-07T04:24:31;10.37;;;6.33;;
18200;SDS011;9226;47.858;9.594;2023-05-07T04:26:58;13.30;;;7.47;;
18200;SDS011;9226;47.858;9.594;2023-05-07T04:29:23;21.87;;;8.97;;
18200;SDS011;9226;47.858;9.594;2023-05-07T04:31:49;13.63;;;7.53;;
18200;SDS011;9226;47.858;9.594;2023-05-07T04:34:14;12.30;;;7.40;;
18200;SDS011;9226;47.858;9.594;2023-05-07T04:36:40;10.47;;;7.13;;
18200;SDS011;9226;47.858;9.594;2023-05-07T04:39:05;9.00;;;6.23;;
18200;SDS011;9226;47.858;9.594;2023-05-07T04:41:31;10.03;;;6.83;;
18200;SDS011;9226;47.858;9.594;2023-05-07T04:43:57;9.93;;;6.43;;
18200;SDS011;9226;47.858;9.594;2023-05-07T04:46:23;10.47;;;6.50;;
18200;SDS011;9226;47.858;9.594;2023-05-07T04:48:49;10.57;;;7.20;;
18200;SDS011;9226;47.858;9.594;2023-05-07T04:51:15;9.53;;;7.03;;
18200;SDS011;9226;47.858;9.594;2023-05-07T04:53:40;9.83;;;6.70;;
18200;SDS011;9226;47.858;9.594;2023-05-07T04:56:06;12.50;;;6.70;;
18200;SDS011;9226;47.858;9.594;2023-05-07T04:58:31;11.27;;;6.73;;
18200;SDS011;9226;47.858;9.594;2023-05-07T05:00:58;8.80;;;6.33;;
18200;SDS011;9226;47.858;9.594;2023-05-07T05:03:23;9.30;;;6.37;;
18200;SDS011;9226;47.858;9.594;2023-05-07T05:05:49;9.93;;;7.13;;
18200;SDS011;9226;47.858;9.594;2023-05-07T05:08:16;10.53;;;6.87;;
18200;SDS011;9226;47.858;9.594;2023-05-07T05:10:42;10.63;;;6.60;;
18200;SDS011;9226;47.858;9.594;2023-05-07T05:13:08;10.27;;;7.00;;
18200;SDS011;9226;47.858;9.594;2023-05-07T05:15:34;11.77;;;6.67;;
18200;SDS011;9226;47.858;9.594;2023-05-07T05:17:59;10.87;;;6.63;;
18200;SDS011;9226;47.858;9.594;2023-05-07T05:20:24;10.37;;;5.93;;
18200;SDS011;9226;47.858;9.594;2023-05-07T05:22:50;11.87;;;6.33;;
18200;SDS011;9226;47.858;9.594;2023-05-07T05:25:15;9.43;;;6.13;;
18200;SDS011;9226;47.858;9.594;2023-05-07T05:27:41;9.30;;;6.13;;
18200;SDS011;9226;47.858;9.594;2023-05-07T05:30:06;10.60;;;5.87;;
18200;SDS011;9226;47.858;9.594;2023-05-07T05:32:32;9.10;;;5.10;;
18200;SDS011;9226;47.858;9.594;2023-05-07T05:34:57;6.67;;;4.70;;
18200;SDS011;9226;47.858;9.594;2023-05-07T05:37:22;7.70;;;4.80;;
18200;SDS011;9226;47.858;9.594;2023-05-07T05:39:48;9.37;;;4.13;;
18200;SDS011;9226;47.858;9.594;2023-05-07T05:42:13;5.67;;;4.77;;
18200;SDS011;9226;47.858;9.594;2023-05-07T05:44:39;8.40;;;3.90;;
18200;SDS011;9226;47.858;9.594;2023-05-07T05:47:04;6.33;;;4.13;;
18200;SDS011;9226;47.858;9.594;2023-05-07T05:49:30;5.40;;;3.80;;
18200;SDS011;9226;47.858;9.594;2023-05-07T05:51:55;6.60;;;3.20;;
18200;SDS011;9226;47.858;9.594;2023-05-07T05:54:21;5.93;;;3.80;;
18200;SDS011;9226;47.858;9.594;2023-05-07T05:56:46;7.93;;;3.63;;
18200;SDS011;9226;47.858;9.594;2023-05-07T05:59:12;7.30;;;3.47;;
18200;SDS011;9226;47.858;9.594;2023-05-07T06:01:37;6.23;;;5.00;;
18200;SDS011;9226;47.858;9.594;2023-05-07T06:04:03;5.40;;;4.63;;
18200;SDS011;9226;47.858;9.594;2023-05-07T06:06:29;4.40;;;3.87;;
18200;SDS011;9226;47.858;9.594;2023-05-07T06:08:54;14.20;;;12.03;;
18200;SDS011;9226;47.858;9.594;2023-05-07T06:11:19;8.17;;;6.83;;
18200;SDS011;9226;47.858;9.594;2023-05-07T06:13:45;5.77;;;4.20;;
18200;SDS011;9226;47.858;9.594;2023-05-07T06:16:10;17.17;;;13.02;;
18200;SDS011;9226;47.858;9.594;2023-05-07T06:18:36;3.08;;;2.25;;
18200;SDS011;9226;47.858;9.594;2023-05-07T06:21:01;3.85;;;2.65;;
18200;SDS011;9226;47.858;9.594;2023-05-07T06:23:27;7.05;;;1.75;;
18200;SDS011;9226;47.858;9.594;2023-05-07T06:25:52;4.05;;;2.47;;
18200;SDS011;9226;47.858;9.594;2023-05-07T06:28:18;2.15;;;1.63;;
18200;SDS011;9226;47.858;9.594;2023-05-07T06:30:43;4.70;;;1.77;;
18200;SDS011;9226;47.858;9.594;2023-05-07T06:33:09;3.75;;;2.63;;
18200;SDS011;9226;47.858;9.594;2023-05-07T06:35:34;3.13;;;2.00;;
18200;SDS011;9226;47.858;9.594;2023-05-07T06:38:00;2.22;;;1.92;;
18200;SDS011;9226;47.858;9.594;2023-05-07T06:40:25;3.53;;;2.65;;
18200;SDS011;9226;47.858;9.594;2023-05-07T06:42:51;4.30;;;2.53;;
18200;SDS011;9226;47.858;9.594;2023-05-07T06:45:17;3.83;;;1.80;;
18200;SDS011;9226;47.858;9.594;2023-05-07T06:47:42;3.88;;;2.17;;
18200;SDS011;9226;47.858;9.594;2023-05-07T06:50:08;3.67;;;2.58;;
18200;SDS011;9226;47.858;9.594;2023-05-07T06:52:34;2.95;;;2.42;;
18200;SDS011;9226;47.858;9.594;2023-05-07T06:55:00;3.42;;;2.60;;
18200;SDS011;9226;47.858;9.594;2023-05-07T06:57:25;4.43;;;2.40;;
18200;SDS011;9226;47.858;9.594;2023-05-07T06:59:51;2.53;;;2.33;;
18200;SDS011;9226;47.858;9.594;2023-05-07T07:02:16;3.20;;;2.30;;
18200;SDS011;9226;47.858;9.594;2023-05-07T07:04:42;2.67;;;1.60;;
18200;SDS011;9226;47.858;9.594;2023-05-07T07:07:07;2.30;;;2.00;;
18200;SDS011;9226;47.858;9.594;2023-05-07T07:09:33;3.10;;;2.20;;
18200;SDS011;9226;47.858;9.594;2023-05-07T07:11:58;2.78;;;2.10;;
18200;SDS011;9226;47.858;9.594;2023-05-07T07:14:24;2.33;;;1.80;;
18200;SDS011;9226;47.858;9.594;2023-05-07T07:16:49;1.60;;;1.50;;
18200;SDS011;9226;47.858;9.594;2023-05-07T07:19:14;3.15;;;1.73;;
18200;SDS011;9226;47.858;9.594;2023-05-07T07:21:40;2.25;;;1.58;;
18200;SDS011;9226;47.858;9.594;2023-05-07T07:24:06;2.28;;;1.65;;
18200;SDS011;9226;47.858;9.594;2023-05-07T07:26:31;2.50;;;1.48;;
18200;SDS011;9226;47.858;9.594;2023-05-07T07:28:57;3.65;;;1.55;;
18200;SDS011;9226;47.858;9.594;2023-05-07T07:31:22;1.60;;;1.40;;
18200;SDS011;9226;47.858;9.594;2023-05-07T07:33:48;3.22;;;1.65;;
18200;SDS011;9226;47.858;9.594;2023-05-07T07:36:15;2.25;;;1.52;;
18200;SDS011;9226;47.858;9.594;2023-05-07T07:38:40;3.42;;;1.70;;
18200;SDS011;9226;47.858;9.594;2023-05-07T07:41:07;2.20;;;1.42;;
18200;SDS011;9226;47.858;9.594;2023-05-07T07:43:33;3.38;;;1.50;;
18200;SDS011;9226;47.858;9.594;2023-05-07T07:45:59;4.18;;;2.13;;
18200;SDS011;9226;47.858;9.594;2023-05-07T07:48:24;2.00;;;1.70;;
18200;SDS011;9226;47.858;9.594;2023-05-07T07:50:50;3.17;;;1.42;;
18200;SDS011;9226;47.858;9.594;2023-05-07T07:53:16;4.25;;;1.70;;
18200;SDS011;9226;47.858;9.594;2023-05-07T07:55:41;3.47;;;1.90;;
18200;SDS011;9226;47.858;9.594;2023-05-07T07:58:07;2.42;;;1.90;;
18200;SDS011;9226;47.858;9.594;2023-05-07T08:00:32;2.00;;;1.73;;
18200;SDS011;9226;47.858;9.594;2023-05-07T08:02:58;4.97;;;1.85;;
18200;SDS011;9226;47.858;9.594;2023-05-07T08:05:23;3.88;;;1.80;;
18200;SDS011;9226;47.858;9.594;2023-05-07T08:07:50;3.70;;;2.00;;
18200;SDS011;9226;47.858;9.594;2023-05-07T08:10:17;2.40;;;1.90;;
18200;SDS011;9226;47.858;9.594;2023-05-07T08:12:46;4.40;;;2.40;;
18200;SDS011;9226;47.858;9.594;2023-05-07T08:15:15;4.90;;;2.28;;
18200;SDS011;9226;47.858;9.594;2023-05-07T08:17:40;6.00;;;1.90;;
18200;SDS011;9226;47.858;9.594;2023-05-07T08:20:06;3.03;;;2.17;;
18200;SDS011;9226;47.858;9.594;2023-05-07T08:22:32;2.30;;;2.10;;
18200;SDS011;9226;47.858;9.594;2023-05-07T08:24:59;3.90;;;2.15;;
18200;SDS011;9226;47.858;9.594;2023-05-07T08:27:25;4.35;;;2.30;;
18200;SDS011;9226;47.858;9.594;2023-05-07T08:29:50;3.58;;;2.33;;
18200;SDS011;9226;47.858;9.594;2023-05-07T08:32:16;3.42;;;2.35;;
18200;SDS011;9226;47.858;9.594;2023-05-07T08:34:41;2.75;;;2.17;;
18200;SDS011;9226;47.858;9.594;2023-05-07T08:37:07;2.90;;;2.45;;
18200;SDS011;9226;47.858;9.594;2023-05-07T08:39:32;3.00;;;2.08;;
18200;SDS011;9226;47.858;9.594;2023-05-07T08:41:57;3.15;;;2.60;;
18200;SDS011;9226;47.858;9.594;2023-05-07T08:44:27;5.30;;;2.13;;
18200;SDS011;9226;47.858;9.594;2023-05-07T08:46:57;2.25;;;2.00;;
18200;SDS011;9226;47.858;9.594;2023-05-07T08:49:24;2.90;;;2.03;;
18200;SDS011;9226;47.858;9.594;2023-05-07T08:51:49;3.30;;;2.10;;
18200;SDS011;9226;47.858;9.594;2023-05-07T08:54:16;3.25;;;2.33;;
18200;SDS011;9226;47.858;9.594;2023-05-07T08:56:42;3.03;;;2.17;;
18200;SDS011;9226;47.858;9.594;2023-05-07T08:59:08;3.78;;;2.88;;
18200;SDS011;9226;47.858;9.594;2023-05-07T09:01:33;3.63;;;2.47;;
18200;SDS011;9226;47.858;9.594;2023-05-07T09:04:00;3.67;;;2.80;;
18200;SDS011;9226;47.858;9.594;2023-05-07T09:06:26;4.25;;;2.90;;
18200;SDS011;9226;47.858;9.594;2023-05-07T09:08:53;5.72;;;3.10;;
18200;SDS011;9226;47.858;9.594;2023-05-07T09:11:22;7.22;;;2.95;;
18200;SDS011;9226;47.858;9.594;2023-05-07T09:13:48;3.70;;;2.40;;
18200;SDS011;9226;47.858;9.594;2023-05-07T09:16:17;5.93;;;3.65;;
18200;SDS011;9226;47.858;9.594;2023-05-07T09:18:46;4.25;;;3.65;;
18200;SDS011;9226;47.858;9.594;2023-05-07T09:21:15;5.28;;;3.72;;
18200;SDS011;9226;47.858;9.594;2023-05-07T09:23:44;6.72;;;3.63;;
18200;SDS011;9226;47.858;9.594;2023-05-07T09:26:09;7.40;;;3.50;;
18200;SDS011;9226;47.858;9.594;2023-05-07T09:28:40;6.43;;;3.58;;
18200;SDS011;9226;47.858;9.594;2023-05-07T09:31:07;3.90;;;3.35;;
18200;SDS011;9226;47.858;9.594;2023-05-07T09:33:33;4.68;;;3.30;;
18200;SDS011;9226;47.858;9.594;2023-05-07T09:36:02;5.57;;;3.17;;
18200;SDS011;9226;47.858;9.594;2023-05-07T09:38:28;4.22;;;3.15;;
18200;SDS011;9226;47.858;9.594;2023-05-07T09:41:09;3.85;;;2.78;;
18200;SDS011;9226;47.858;9.594;2023-05-07T09:43:38;3.83;;;3.20;;
18200;SDS011;9226;47.858;9.594;2023-05-07T09:46:11;6.65;;;3.45;;
18200;SDS011;9226;47.858;9.594;2023-05-07T09:48:38;4.82;;;3.28;;
18200;SDS011;9226;47.858;9.594;2023-05-07T09:51:06;4.97;;;3.13;;
18200;SDS011;9226;47.858;9.594;2023-05-07T09:53:40;3.70;;;3.25;;
18200;SDS011;9226;47.858;9.594;2023-05-07T09:56:07;4.22;;;3.15;;
18200;SDS011;9226;47.858;9.594;2023-05-07T09:58:33;3.28;;;2.97;;
18200;SDS011;9226;47.858;9.594;2023-05-07T10:01:02;4.70;;;3.13;;
18200;SDS011;9226;47.858;9.594;2023-05-07T10:03:28;3.45;;;3.05;;
18200;SDS011;9226;47.858;9.594;2023-05-07T10:05:58;4.30;;;3.40;;
18200;SDS011;9226;47.858;9.594;2023-05-07T10:08:24;4.95;;;3.00;;
18200;SDS011;9226;47.858;9.594;2023-05-07T10:10:49;4.07;;;3.67;;
18200;SDS011;9226;47.858;9.594;2023-05-07T10:13:16;4.00;;;3.50;;
18200;SDS011;9226;47.858;9.594;2023-05-07T10:15:43;6.40;;;3.60;;
18200;SDS011;9226;47.858;9.594;2023-05-07T10:18:09;8.25;;;3.30;;
18200;SDS011;9226;47.858;9.594;2023-05-07T10:20:37;5.40;;;3.40;;
18200;SDS011;9226;47.858;9.594;2023-05-07T10:23:04;6.53;;;3.97;;
18200;SDS011;9226;47.858;9.594;2023-05-07T10:25:31;5.13;;;3.63;;
18200;SDS011;9226;47.858;9.594;2023-05-07T10:28:05;9.50;;;3.67;;
18200;SDS011;9226;47.858;9.594;2023-05-07T10:33:20;4.03;;;3.13;;
18200;SDS011;9226;47.858;9.594;2023-05-07T10:35:48;5.43;;;3.70;;
18200;SDS011;9226;47.858;9.594;2023-05-07T10:38:14;7.50;;;4.13;;
18200;SDS011;9226;47.858;9.594;2023-05-07T10:40:40;7.25;;;3.33;;
18200;SDS011;9226;47.858;9.594;2023-05-07T10:43:05;7.07;;;3.20;;
18200;SDS011;9226;47.858;9.594;2023-05-07T10:45:31;8.38;;;2.70;;
18200;SDS011;9226;47.858;9.594;2023-05-07T10:50:43;11.25;;;2.70;;
18200;SDS011;9226;47.858;9.594;2023-05-07T10:55:49;5.68;;;2.58;;
18200;SDS011;9226;47.858;9.594;2023-05-07T11:00:46;2.97;;;2.50;;
18200;SDS011;9226;47.858;9.594;2023-05-07T11:03:12;3.20;;;2.63;;
18200;SDS011;9226;47.858;9.594;2023-05-07T11:05:39;5.95;;;2.67;;
18200;SDS011;9226;47.858;9.594;2023-05-07T11:08:06;3.90;;;2.92;;
18200;SDS011;9226;47.858;9.594;2023-05-07T11:13:13;5.65;;;2.00;;
18200;SDS011;9226;47.858;9.594;2023-05-07T11:15:40;2.63;;;1.92;;
18200;SDS011;9226;47.858;9.594;2023-05-07T11:18:08;3.65;;;1.77;;
18200;SDS011;9226;47.858;9.594;2023-05-07T11:20:44;1.88;;;1.73;;
18200;SDS011;9226;47.858;9.594;2023-05-07T11:28:36;3.10;;;1.90;;
18200;SDS011;9226;47.858;9.594;2023-05-07T11:31:03;2.72;;;2.13;;
18200;SDS011;9226;47.858;9.594;2023-05-07T11:33:29;3.95;;;2.15;;
18200;SDS011;9226;47.858;9.594;2023-05-07T11:35:55;5.32;;;2.20;;
18200;SDS011;9226;47.858;9.594;2023-05-07T11:38:21;3.10;;;2.30;;
18200;SDS011;9226;47.858;9.594;2023-05-07T11:40:50;5.67;;;2.10;;
18200;SDS011;9226;47.858;9.594;2023-05-07T11:43:20;2.30;;;1.75;;
18200;SDS011;9226;47.858;9.594;2023-05-07T11:45:46;2.33;;;1.98;;
18200;SDS011;9226;47.858;9.594;2023-05-07T11:48:12;4.43;;;1.93;;
18200;SDS011;9226;47.858;9.594;2023-05-07T11:53:17;3.33;;;2.10;;
18200;SDS011;9226;47.858;9.594;2023-05-07T11:55:43;2.97;;;2.10;;
18200;SDS011;9226;47.858;9.594;2023-05-07T11:58:10;5.47;;;2.35;;
18200;SDS011;9226;47.858;9.594;2023-05-07T12:00:37;2.60;;;2.07;;
18200;SDS011;9226;47.858;9.594;2023-05-07T12:03:05;2.80;;;2.13;;
18200;SDS011;9226;47.858;9.594;2023-05-07T12:05:31;2.63;;;2.03;;
18200;SDS011;9226;47.858;9.594;2023-05-07T12:07:59;2.10;;;1.90;;
18200;SDS011;9226;47.858;9.594;2023-05-07T12:10:25;2.70;;;2.13;;
18200;SDS011;9226;47.858;9.594;2023-05-07T12:12:50;3.13;;;1.77;;
18200;SDS011;9226;47.858;9.594;2023-05-07T12:15:16;3.97;;;1.80;;
18200;SDS011;9226;47.858;9.594;2023-05-07T12:17:42;2.53;;;1.80;;
18200;SDS011;9226;47.858;9.594;2023-05-07T12:20:08;1.80;;;1.60;;
18200;SDS011;9226;47.858;9.594;2023-05-07T12:22:35;2.27;;;1.70;;
18200;SDS011;9226;47.858;9.594;2023-05-07T12:25:01;2.40;;;1.73;;
18200;SDS011;9226;47.858;9.594;2023-05-07T12:27:27;2.17;;;1.77;;
18200;SDS011;9226;47.858;9.594;2023-05-07T12:29:53;1.70;;;1.50;;
18200;SDS011;9226;47.858;9.594;2023-05-07T12:32:19;2.17;;;1.60;;
18200;SDS011;9226;47.858;9.594;2023-05-07T12:34:46;3.58;;;1.75;;
18200;SDS011;9226;47.858;9.594;2023-05-07T12:37:14;2.90;;;1.77;;
18200;SDS011;9226;47.858;9.594;2023-05-07T12:39:49;1.90;;;1.60;;
18200;SDS011;9226;47.858;9.594;2023-05-07T12:42:28;2.20;;;1.80;;
18200;SDS011;9226;47.858;9.594;2023-05-07T12:44:57;2.07;;;1.50;;
18200;SDS011;9226;47.858;9.594;2023-05-07T12:47:23;2.00;;;1.80;;
18200;SDS011;9226;47.858;9.594;2023-05-07T12:49:48;4.32;;;1.90;;
18200;SDS011;9226;47.858;9.594;2023-05-07T12:52:13;4.40;;;1.50;;
18200;SDS011;9226;47.858;9.594;2023-05-07T12:54:39;2.83;;;1.90;;
18200;SDS011;9226;47.858;9.594;2023-05-07T12:57:05;2.00;;;1.80;;
18200;SDS011;9226;47.858;9.594;2023-05-07T12:59:41;2.42;;;1.80;;
18200;SDS011;9226;47.858;9.594;2023-05-07T13:02:08;2.30;;;1.80;;
18200;SDS011;9226;47.858;9.594;2023-05-07T13:04:34;1.80;;;1.60;;
18200;SDS011;9226;47.858;9.594;2023-05-07T13:07:00;1.60;;;1.50;;
18200;SDS011;9226;47.858;9.594;2023-05-07T13:09:26;2.17;;;1.70;;
18200;SDS011;9226;47.858;9.594;2023-05-07T13:11:51;2.03;;;1.57;;
18200;SDS011;9226;47.858;9.594;2023-05-07T13:14:16;2.10;;;1.63;;
18200;SDS011;9226;47.858;9.594;2023-05-07T13:16:42;2.27;;;1.63;;
18200;SDS011;9226;47.858;9.594;2023-05-07T13:19:08;2.27;;;1.60;;
18200;SDS011;9226;47.858;9.594;2023-05-07T13:21:33;2.03;;;1.80;;
18200;SDS011;9226;47.858;9.594;2023-05-07T13:23:58;3.70;;;1.90;;
18200;SDS011;9226;47.858;9.594;2023-05-07T13:26:24;2.37;;;1.90;;
18200;SDS011;9226;47.858;9.594;2023-05-07T13:28:50;2.13;;;1.80;;
18200;SDS011;9226;47.858;9.594;2023-05-07T13:31:16;3.53;;;1.90;;
18200;SDS011;9226;47.858;9.594;2023-05-07T13:33:42;5.50;;;2.00;;
18200;SDS011;9226;47.858;9.594;2023-05-07T13:36:07;3.07;;;2.10;;
18200;SDS011;9226;47.858;9.594;2023-05-07T13:38:33;2.20;;;1.80;;
18200;SDS011;9226;47.858;9.594;2023-05-07T13:40:58;3.03;;;2.00;;
18200;SDS011;9226;47.858;9.594;2023-05-07T13:43:24;2.77;;;2.00;;
18200;SDS011;9226;47.858;9.594;2023-05-07T13:45:49;2.23;;;1.90;;
18200;SDS011;9226;47.858;9.594;2023-05-07T13:48:15;2.67;;;1.97;;
18200;SDS011;9226;47.858;9.594;2023-05-07T13:50:40;3.93;;;1.50;;
18200;SDS011;9226;47.858;9.594;2023-05-07T13:53:07;2.90;;;1.80;;
18200;SDS011;9226;47.858;9.594;2023-05-07T13:55:32;2.17;;;1.60;;
18200;SDS011;9226;47.858;9.594;2023-05-07T13:57:59;1.70;;;1.60;;
18200;SDS011;9226;47.858;9.594;2023-05-07T14:00:26;4.80;;;1.90;;
18200;SDS011;9226;47.858;9.594;2023-05-07T14:02:52;2.97;;;1.53;;
18200;SDS011;9226;47.858;9.594;2023-05-07T14:05:18;2.33;;;1.90;;
18200;SDS011;9226;47.858;9.594;2023-05-07T14:07:44;2.30;;;1.90;;
18200;SDS011;9226;47.858;9.594;2023-05-07T14:10:09;2.27;;;1.60;;
18200;SDS011;9226;47.858;9.594;2023-05-07T14:12:36;3.67;;;2.00;;
18200;SDS011;9226;47.858;9.594;2023-05-07T14:15:02;5.00;;;2.23;;
18200;SDS011;9226;47.858;9.594;2023-05-07T14:17:27;3.63;;;2.13;;
18200;SDS011;9226;47.858;9.594;2023-05-07T14:19:53;4.23;;;2.07;;
18200;SDS011;9226;47.858;9.594;2023-05-07T14:22:19;2.27;;;1.87;;
18200;SDS011;9226;47.858;9.594;2023-05-07T14:24:45;2.87;;;1.93;;
18200;SDS011;9226;47.858;9.594;2023-05-07T14:27:11;2.13;;;1.90;;
18200;SDS011;9226;47.858;9.594;2023-05-07T14:29:36;2.93;;;2.63;;
18200;SDS011;9226;47.858;9.594;2023-05-07T14:32:02;4.83;;;2.33;;
18200;SDS011;9226;47.858;9.594;2023-05-07T14:34:28;7.63;;;5.30;;
18200;SDS011;9226;47.858;9.594;2023-05-07T14:36:54;6.43;;;4.30;;
18200;SDS011;9226;47.858;9.594;2023-05-07T14:39:20;4.20;;;2.93;;
18200;SDS011;9226;47.858;9.594;2023-05-07T14:41:46;3.10;;;1.57;;
18200;SDS011;9226;47.858;9.594;2023-05-07T14:44:11;2.07;;;1.50;;
18200;SDS011;9226;47.858;9.594;2023-05-07T14:46:36;4.87;;;1.60;;
18200;SDS011;9226;47.858;9.594;2023-05-07T14:49:02;4.73;;;1.50;;
18200;SDS011;9226;47.858;9.594;2023-05-07T14:51:27;3.40;;;1.60;;
18200;SDS011;9226;47.858;9.594;2023-05-07T14:53:53;2.80;;;1.70;;
18200;SDS011;9226;47.858;9.594;2023-05-07T14:56:19;2.00;;;1.57;;
18200;SDS011;9226;47.858;9.594;2023-05-07T14:58:46;3.13;;;1.70;;
18200;SDS011;9226;47.858;9.594;2023-05-07T15:01:12;3.10;;;1.93;;
18200;SDS011;9226;47.858;9.594;2023-05-07T15:03:38;1.60;;;1.40;;
18200;SDS011;9226;47.858;9.594;2023-05-07T15:06:04;3.63;;;1.53;;
18200;SDS011;9226;47.858;9.594;2023-05-07T15:08:30;2.20;;;1.47;;
18200;SDS011;9226;47.858;9.594;2023-05-07T15:10:55;2.20;;;1.60;;
18200;SDS011;9226;47.858;9.594;2023-05-07T15:13:21;2.70;;;1.60;;